Kezdőlap
METAR-TAF:

METAR-TAF

Repülőterek :

Karacsi, Pakisztán

földrajzi szélesség: 24-54N, földrajzi hosszúság: 067-08E, magasság: 21 m

Jelenlegi meteorológiai megfigyelések

A jelentés 48 perccel ezelõtt készült, 01:55 UTC
Nyugati szél 6 kt
Hőmérséklet 23°C
Páratartalom 83%
Légköri nyomás 1013 hPa
Látótávolság: 4000 m
füst

METAR: OPKC 170155Z 27006KT 4000 FU NSC 23/20 Q1013 NOSIG

Idő: 07:43 (02:43 UTC)

Előrejelzés

A jelentés 2 órával és 13 perccel ezelõtt készült, 00:30 UTC
Az előrejelzés 17-én 03 óra UTC és 17-én 12 óra UTC között érvényes
Nyugat-délnyugati szél 5 kt széllökések: 15 kt
Látótávolság: 6000 m
Kevés felhő 2000 lábon
17-én 03 óra UTC és 17-én 07 óra UTC között ideiglenes
Nyugati szél 5 kt
Látótávolság: 2500 m
Szórványos felhőzet 2000 lábon
füst

TAF: OPKC 170030Z 1703/1712 24005G15KT 6000 FEW020 TEMPO 1703/1707 27005KT 2500 FU SCT020

Meteorológiai megfigyelések és előrejelzések több, mint 4000 repülőtéren (METAR és TAF jelentéseket).

A térképen piros és sárga pontok jelzik az elérhető meteorológiai állomásokat.

Mozgassa az egeret a pont fölött, hogy megjelenjen az állomás neve.

Azután kattintson az időjárási megfigyelések és előrejelzések megtekintéséhez.

A térkép megváltoztatása: kattintson a fekete keresztel jelölt zöld gombra ráközelítéshez, a vonallal jelölt zöld gombra távolításhoz, vagy a zöld nyilakra a szomszédos térképek eléréséhez.


METAR-TAF: